Time;durP1;ratioP1;P1;durP2;ratioP2;P2;SDS_P1;SDS_P2;PMS_P1;PMS_P2;Temp;Humidity;BMP_temperature;BMP_pressure;BME280_temperature;BME280_humidity;BME280_pressure;Samples;Min_cycle;Max_cycle;Signal;HPM_P1;HPM_P2
2021/03/04 00:00:08;;;;;;;38.33;21.07;;;4.90;99.80;;;;;;4988590;28;20200;-61
2021/03/04 00:02:33;;;;;;;40.13;21.30;;;4.90;99.80;;;;;;4990155;28;20181;-60
2021/03/04 00:04:59;;;;;;;44.47;20.80;;;4.90;99.90;;;;;;4992428;28;20997;-61
2021/03/04 00:07:24;;;;;;;40.43;21.40;;;4.90;99.90;;;;;;4987408;28;20223;-59
2021/03/04 00:09:50;;;;;;;42.33;20.83;;;4.80;99.90;;;;;;4987454;28;20177;-60
2021/03/04 00:12:16;;;;;;;38.70;21.00;;;4.80;99.80;;;;;;4992009;28;20189;-59
2021/03/04 00:14:43;;;;;;;39.53;20.00;;;4.80;99.80;;;;;;4992317;28;20224;-60
2021/03/04 00:17:08;;;;;;;41.47;21.03;;;4.80;99.80;;;;;;4991018;28;20440;-59
2021/03/04 00:19:34;;;;;;;40.23;21.30;;;4.80;99.60;;;;;;4991027;28;20431;-60
2021/03/04 00:22:00;;;;;;;44.00;23.00;;;4.80;99.80;;;;;;4991059;28;20440;-60
2021/03/04 00:24:26;;;;;;;45.30;22.40;;;4.80;99.70;;;;;;4984447;28;20235;-60
2021/03/04 00:26:52;;;;;;;48.40;22.27;;;4.80;99.80;;;;;;4988991;28;20215;-61
2021/03/04 00:29:18;;;;;;;43.27;22.07;;;4.80;99.80;;;;;;4990377;28;20219;-60
2021/03/04 00:31:44;;;;;;;42.60;20.90;;;4.70;99.80;;;;;;4990931;28;20870;-60
2021/03/04 00:34:10;;;;;;;41.00;22.90;;;4.70;99.80;;;;;;4988330;28;20479;-60
2021/03/04 00:36:36;;;;;;;40.77;20.70;;;4.70;99.80;;;;;;4988732;28;20181;-63
2021/03/04 00:39:06;;;;;;;43.60;22.17;;;4.70;99.80;;;;;;4996871;28;20178;-59
2021/03/04 00:41:32;;;;;;;44.00;22.13;;;4.70;99.80;;;;;;4988082;28;20201;-62
2021/03/04 00:43:58;;;;;;;44.20;22.97;;;4.60;99.80;;;;;;4979868;28;20959;-59
2021/03/04 00:46:24;;;;;;;44.23;22.60;;;4.60;99.90;;;;;;4975414;28;20494;-62
2021/03/04 00:48:49;;;;;;;45.73;21.40;;;4.60;99.90;;;;;;4973144;28;22169;-60
2021/03/04 00:51:15;;;;;;;35.63;19.80;;;4.60;99.90;;;;;;4985125;28;20203;-60
2021/03/04 00:53:40;;;;;;;43.40;21.43;;;4.60;99.90;;;;;;4986714;28;20182;-60
2021/03/04 00:56:06;;;;;;;40.60;22.10;;;4.60;99.90;;;;;;4992520;28;20571;-61
2021/03/04 00:58:32;;;;;;;36.77;19.57;;;4.60;99.90;;;;;;4989628;28;20432;-62
2021/03/04 01:00:58;;;;;;;39.20;19.20;;;4.50;99.90;;;;;;4990607;28;20660;-60
2021/03/04 01:03:24;;;;;;;38.13;19.17;;;4.50;99.90;;;;;;4988502;28;20213;-61
2021/03/04 01:05:49;;;;;;;33.40;17.80;;;4.50;99.90;;;;;;4988651;28;20843;-62
2021/03/04 01:08:15;;;;;;;36.07;17.90;;;4.50;99.90;;;;;;4973411;28;20196;-62
2021/03/04 01:10:41;;;;;;;33.10;16.83;;;4.50;99.90;;;;;;4978799;28;20173;-61
2021/03/04 01:13:08;;;;;;;34.17;18.90;;;4.50;99.90;;;;;;4976618;28;20181;-63
2021/03/04 01:15:35;;;;;;;40.73;18.30;;;4.50;99.90;;;;;;4982593;28;20483;-60
2021/03/04 01:18:02;;;;;;;35.30;17.83;;;4.50;99.90;;;;;;4989818;28;20442;-60
2021/03/04 01:20:28;;;;;;;33.37;18.37;;;4.50;99.90;;;;;;4992099;28;20479;-61
2021/03/04 01:22:54;;;;;;;36.87;19.00;;;4.50;99.90;;;;;;4981724;28;20446;-60
2021/03/04 01:25:20;;;;;;;41.40;18.97;;;4.50;99.90;;;;;;4987823;28;20817;-60
2021/03/04 01:27:51;;;;;;;40.13;19.30;;;4.50;99.90;;;;;;4991574;28;20444;-59
2021/03/04 01:30:18;;;;;;;42.40;20.70;;;4.40;99.90;;;;;;4991127;28;20412;-61
2021/03/04 01:32:44;;;;;;;37.30;18.93;;;4.50;99.90;;;;;;4988768;28;20437;-59
2021/03/04 01:35:10;;;;;;;36.57;19.50;;;4.50;99.90;;;;;;4988802;28;20820;-61
2021/03/04 01:37:37;;;;;;;36.60;20.30;;;4.40;99.90;;;;;;4993780;28;20705;-60
2021/03/04 01:40:16;;;;;;;35.97;19.67;;;4.50;99.90;;;;;;4993187;28;20424;-61
2021/03/04 01:42:43;;;;;;;38.20;20.50;;;4.50;99.90;;;;;;4983132;28;20428;-60
2021/03/04 01:45:10;;;;;;;46.20;20.37;;;4.50;99.90;;;;;;4994254;28;20479;-60
2021/03/04 01:47:38;;;;;;;40.40;19.60;;;4.40;99.90;;;;;;4993281;28;20904;-61
2021/03/04 01:50:05;;;;;;;52.17;19.73;;;4.50;99.90;;;;;;4994134;28;20440;-61
2021/03/04 01:52:32;;;;;;;38.83;20.83;;;4.50;99.90;;;;;;4994973;28;20979;-59
2021/03/04 01:54:59;;;;;;;39.63;20.23;;;4.50;99.90;;;;;;4996157;28;20468;-62
2021/03/04 01:57:29;;;;;;;35.77;20.47;;;4.40;99.90;;;;;;4991421;28;20428;-61
2021/03/04 01:59:59;;;;;;;41.43;20.30;;;4.50;99.90;;;;;;4992653;28;20517;-60
2021/03/04 02:02:25;;;;;;;37.33;20.20;;;4.50;99.90;;;;;;4990685;28;20423;-60
2021/03/04 02:04:53;;;;;;;41.40;22.03;;;4.40;99.90;;;;;;4992173;28;20462;-63
2021/03/04 02:07:28;;;;;;;44.40;22.30;;;4.40;99.90;;;;;;4992682;28;20439;-60
2021/03/04 02:10:06;;;;;;;45.67;21.17;;;4.50;99.90;;;;;;4993872;28;20414;-60
2021/03/04 02:12:54;;;;;;;37.27;20.83;;;4.40;99.90;;;;;;4991947;28;20443;-62
2021/03/04 02:15:26;;;;;;;36.77;19.97;;;4.40;99.90;;;;;;4992733;28;21001;-60
2021/03/04 02:17:56;;;;;;;41.43;22.40;;;4.40;99.90;;;;;;4991560;28;20448;-60
2021/03/04 02:21:04;;;;;;;44.97;23.13;;;4.40;99.90;;;;;;4994887;28;20986;-62
2021/03/04 02:24:08;;;;;;;45.50;22.90;;;4.40;99.90;;;;;;4990204;28;20485;-59
2021/03/04 02:26:43;;;;;;;44.33;21.90;;;4.40;99.90;;;;;;5003660;28;20490;-61
2021/03/04 02:29:18;;;;;;;38.83;21.77;;;4.40;99.90;;;;;;4988124;28;20432;-61
2021/03/04 02:31:46;;;;;;;46.50;21.73;;;4.40;99.90;;;;;;4990458;28;20435;-59
2021/03/04 02:34:14;;;;;;;39.97;19.70;;;4.40;99.90;;;;;;4991127;28;21008;-61
2021/03/04 02:36:42;;;;;;;38.93;20.60;;;4.40;99.90;;;;;;4994231;28;20442;-60
2021/03/04 02:39:09;;;;;;;41.57;21.77;;;4.40;99.90;;;;;;4995162;28;20432;-61
2021/03/04 02:41:37;;;;;;;34.50;20.17;;;4.40;99.90;;;;;;4992226;28;20511;-61
2021/03/04 02:44:09;;;;;;;39.73;19.90;;;4.40;99.90;;;;;;4988233;28;20459;-62
2021/03/04 02:46:37;;;;;;;43.10;20.80;;;4.30;99.90;;;;;;4992401;28;20464;-60
2021/03/04 02:49:04;;;;;;;41.80;22.03;;;4.30;99.90;;;;;;4991661;28;20460;-61
2021/03/04 02:51:32;;;;;;;42.07;22.30;;;4.30;99.90;;;;;;4992822;28;20504;-62
2021/03/04 02:53:59;;;;;;;37.23;21.07;;;4.30;99.90;;;;;;4993247;28;20468;-59
2021/03/04 02:56:26;;;;;;;43.60;20.30;;;4.30;99.90;;;;;;4989583;28;20425;-63
2021/03/04 02:58:54;;;;;;;39.67;21.60;;;4.30;99.90;;;;;;4993054;28;20450;-60
2021/03/04 03:01:22;;;;;;;40.97;21.50;;;4.30;99.90;;;;;;4989507;28;20443;-60
2021/03/04 03:03:50;;;;;;;49.80;22.20;;;4.30;99.90;;;;;;4989820;28;20518;-60
2021/03/04 03:06:21;;;;;;;39.10;20.57;;;4.30;99.90;;;;;;4990772;28;20447;-58
2021/03/04 03:08:48;;;;;;;38.13;21.47;;;4.30;99.90;;;;;;4993369;28;21611;-60
2021/03/04 03:11:17;;;;;;;40.00;21.27;;;4.30;99.90;;;;;;4991961;28;20440;-60
2021/03/04 03:13:47;;;;;;;38.27;19.73;;;4.30;99.90;;;;;;4994333;28;20436;-59
2021/03/04 03:16:13;;;;;;;43.33;22.23;;;4.40;99.90;;;;;;4989813;28;20594;-60
2021/03/04 03:18:39;;;;;;;43.17;21.27;;;4.30;99.90;;;;;;4984138;28;20486;-63
2021/03/04 03:21:05;;;;;;;52.03;21.90;;;4.30;99.90;;;;;;4981012;28;20452;-59
2021/03/04 03:23:30;;;;;;;40.50;20.97;;;4.30;99.90;;;;;;4991809;28;20209;-57
2021/03/04 03:26:00;;;;;;;43.00;20.47;;;4.30;99.90;;;;;;4984189;28;20197;-59
2021/03/04 03:28:29;;;;;;;37.50;21.00;;;4.30;99.90;;;;;;4986359;28;20532;-62
2021/03/04 03:30:55;;;;;;;42.10;21.67;;;4.30;99.90;;;;;;4988840;28;20436;-62
2021/03/04 03:33:21;;;;;;;42.60;21.10;;;4.30;99.90;;;;;;4991026;28;20440;-60
2021/03/04 03:35:47;;;;;;;41.60;22.73;;;4.30;99.90;;;;;;4988833;28;20468;-60
2021/03/04 03:38:17;;;;;;;41.90;22.83;;;4.30;99.90;;;;;;4998697;28;20525;-59
2021/03/04 03:40:47;;;;;;;44.70;21.90;;;4.30;99.90;;;;;;4992928;28;20432;-60
2021/03/04 03:43:15;;;;;;;41.50;21.87;;;4.30;99.90;;;;;;4974962;28;20446;-62
2021/03/04 03:45:46;;;;;;;47.23;22.23;;;4.20;99.90;;;;;;4990715;28;20461;-61
2021/03/04 03:48:15;;;;;;;47.53;22.90;;;4.20;99.90;;;;;;4997421;28;20927;-60
2021/03/04 03:50:48;;;;;;;41.83;21.80;;;4.30;99.90;;;;;;4989862;28;20488;-59
2021/03/04 03:53:16;;;;;;;42.60;22.60;;;4.20;99.90;;;;;;4993758;28;20814;-62
2021/03/04 03:55:46;;;;;;;44.77;23.20;;;4.30;99.90;;;;;;5006715;28;21076;-63
2021/03/04 03:58:12;;;;;;;45.00;22.90;;;4.20;99.90;;;;;;4992086;28;20462;-59
2021/03/04 04:00:38;;;;;;;38.90;22.03;;;4.30;99.90;;;;;;4976327;28;20433;-60
2021/03/04 04:03:05;;;;;;;45.93;21.30;;;4.30;99.90;;;;;;4986065;28;20440;-59
2021/03/04 04:05:34;;;;;;;40.43;21.50;;;4.30;99.90;;;;;;4990605;28;20452;-59
2021/03/04 04:08:00;;;;;;;52.63;22.00;;;4.30;99.90;;;;;;4991144;28;21135;-57
2021/03/04 04:10:28;;;;;;;39.70;21.00;;;4.30;99.90;;;;;;4992876;28;20519;-61
2021/03/04 04:12:54;;;;;;;47.20;22.33;;;4.30;99.90;;;;;;4982260;28;20437;-60
2021/03/04 04:15:20;;;;;;;37.73;21.50;;;4.30;99.90;;;;;;4989160;28;20472;-60
2021/03/04 04:17:47;;;;;;;42.13;21.87;;;4.30;99.90;;;;;;4990484;28;20464;-63
2021/03/04 04:20:14;;;;;;;52.97;22.10;;;4.30;99.90;;;;;;4992182;28;20429;-60
2021/03/04 04:22:41;;;;;;;48.70;24.07;;;4.30;99.90;;;;;;4989442;28;20455;-60
2021/03/04 04:25:08;;;;;;;45.37;22.93;;;4.30;99.90;;;;;;4987396;28;20467;-60
2021/03/04 04:27:34;;;;;;;49.13;24.23;;;4.30;99.90;;;;;;4984638;28;20570;-59
2021/03/04 04:29:59;;;;;;;45.50;24.10;;;4.30;99.90;;;;;;4968923;28;20433;-60
2021/03/04 04:32:26;;;;;;;42.17;22.17;;;4.30;99.90;;;;;;4996211;28;20434;-60
2021/03/04 04:34:52;;;;;;;43.63;22.00;;;4.30;99.90;;;;;;4994360;28;20463;-60
2021/03/04 04:37:17;;;;;;;47.23;22.50;;;4.30;99.90;;;;;;4990090;28;20558;-62
2021/03/04 04:39:43;;;;;;;45.00;22.63;;;4.30;99.90;;;;;;4985161;28;20260;-61
2021/03/04 04:42:09;;;;;;;43.13;20.80;;;4.30;99.90;;;;;;4991344;28;20275;-60
2021/03/04 04:44:35;;;;;;;46.97;21.60;;;4.30;99.90;;;;;;4988732;28;20934;-61
2021/03/04 04:47:00;;;;;;;40.60;20.20;;;4.30;99.90;;;;;;4986926;28;20448;-59
2021/03/04 04:49:26;;;;;;;41.07;20.93;;;4.30;99.90;;;;;;4985024;28;20193;-59
2021/03/04 04:51:52;;;;;;;39.93;21.23;;;4.30;99.90;;;;;;4989872;28;20258;-60
2021/03/04 04:54:18;;;;;;;40.40;20.43;;;4.30;99.90;;;;;;4988039;28;20592;-60
2021/03/04 04:56:44;;;;;;;49.33;20.43;;;4.30;99.90;;;;;;4984025;28;20468;-59
2021/03/04 04:59:10;;;;;;;40.23;21.87;;;4.30;99.90;;;;;;4987879;28;20583;-60
2021/03/04 05:01:36;;;;;;;44.50;19.57;;;4.30;99.90;;;;;;4987341;28;20170;-60
2021/03/04 05:04:02;;;;;;;35.30;20.03;;;4.30;99.90;;;;;;5000341;28;20208;-60
2021/03/04 05:06:27;;;;;;;38.33;20.00;;;4.20;99.90;;;;;;4986189;28;20440;-61
2021/03/04 05:08:53;;;;;;;43.23;21.07;;;4.20;99.90;;;;;;4988150;28;20180;-59
2021/03/04 05:11:18;;;;;;;38.90;19.93;;;4.20;99.90;;;;;;4983640;28;20181;-60
2021/03/04 05:13:44;;;;;;;40.60;21.00;;;4.30;99.90;;;;;;4987336;28;20212;-60
2021/03/04 05:16:11;;;;;;;35.37;19.67;;;4.20;99.90;;;;;;4991611;28;20617;-60
2021/03/04 05:18:37;;;;;;;37.80;20.17;;;4.30;99.90;;;;;;4983568;28;20460;-59
2021/03/04 05:21:04;;;;;;;39.13;20.73;;;4.30;99.90;;;;;;4991285;28;20801;-60
2021/03/04 05:23:30;;;;;;;36.60;20.73;;;4.30;99.90;;;;;;4987818;28;20436;-61
2021/03/04 05:25:59;;;;;;;35.37;19.33;;;4.30;99.90;;;;;;4989012;28;20458;-59
2021/03/04 05:28:24;;;;;;;45.97;21.33;;;4.30;99.90;;;;;;4989626;28;20201;-61
2021/03/04 05:30:52;;;;;;;35.87;22.13;;;4.30;99.90;;;;;;4990117;28;20523;-62
2021/03/04 05:33:18;;;;;;;37.70;18.93;;;4.30;99.90;;;;;;4989242;28;20173;-59
2021/03/04 05:35:44;;;;;;;39.13;19.37;;;4.30;99.90;;;;;;4987674;28;20545;-60
2021/03/04 05:38:10;;;;;;;36.03;18.90;;;4.30;99.90;;;;;;4986074;28;20440;-61
2021/03/04 05:40:38;;;;;;;36.70;19.63;;;4.30;99.90;;;;;;4975996;28;20174;-60
2021/03/04 05:43:05;;;;;;;36.90;19.30;;;4.30;99.90;;;;;;4988389;28;20227;-61
2021/03/04 05:45:33;;;;;;;37.10;18.50;;;4.20;99.90;;;;;;4990401;28;20456;-60
2021/03/04 05:48:02;;;;;;;35.33;19.37;;;4.20;99.90;;;;;;4991979;28;20920;-60
2021/03/04 05:50:29;;;;;;;36.07;19.70;;;4.20;99.90;;;;;;4975382;28;20972;-63
2021/03/04 05:52:59;;;;;;;38.03;19.60;;;4.20;99.90;;;;;;4986681;28;20535;-60
2021/03/04 05:55:25;;;;;;;33.00;18.57;;;4.10;99.90;;;;;;4985779;28;20468;-60
2021/03/04 05:57:52;;;;;;;39.20;18.87;;;4.10;99.90;;;;;;4981469;28;20425;-60
2021/03/04 06:00:18;;;;;;;37.30;18.70;;;4.10;99.90;;;;;;4983085;28;20850;-61
2021/03/04 06:02:46;;;;;;;35.53;18.77;;;4.10;99.90;;;;;;4981010;28;20436;-59
2021/03/04 06:05:13;;;;;;;32.70;17.70;;;4.10;99.90;;;;;;4978827;28;20452;-58
2021/03/04 06:07:43;;;;;;;33.80;17.80;;;4.20;99.90;;;;;;4978245;28;20540;-59
2021/03/04 06:10:09;;;;;;;37.50;18.10;;;4.20;99.90;;;;;;4982488;28;20484;-60
2021/03/04 06:12:35;;;;;;;36.27;18.80;;;4.20;99.90;;;;;;4990578;28;20439;-60
2021/03/04 06:15:02;;;;;;;40.70;19.47;;;4.20;99.90;;;;;;4976589;28;20475;-60
2021/03/04 06:17:27;;;;;;;39.27;21.03;;;4.20;99.90;;;;;;4969810;28;20488;-61
2021/03/04 06:19:54;;;;;;;40.33;21.93;;;4.20;99.90;;;;;;4972374;28;20678;-60
2021/03/04 06:22:24;;;;;;;43.73;21.40;;;4.20;99.90;;;;;;4973901;28;20850;-58
2021/03/04 06:24:50;;;;;;;36.87;22.13;;;4.20;99.90;;;;;;4991270;28;20518;-60
2021/03/04 06:27:28;;;;;;;38.70;21.80;;;4.20;99.90;;;;;;4974315;28;21185;-59
2021/03/04 06:29:54;;;;;;;48.90;19.30;;;4.30;99.90;;;;;;4988385;28;20446;-60
2021/03/04 06:32:23;;;;;;;44.00;18.47;;;4.30;99.90;;;;;;4989593;28;20436;-60
2021/03/04 06:35:11;;;;;;;36.10;18.80;;;4.30;99.90;;;;;;4986965;28;20462;-61
2021/03/04 06:37:45;;;;;;;36.67;20.00;;;4.30;99.90;;;;;;4993069;28;20519;-61
2021/03/04 06:40:22;;;;;;;36.23;19.57;;;4.30;99.90;;;;;;4988942;28;20440;-60
2021/03/04 06:42:49;;;;;;;33.47;19.20;;;4.30;99.90;;;;;;4984297;28;20494;-60
2021/03/04 06:45:35;;;;;;;38.20;20.63;;;4.30;99.90;;;;;;4988812;28;20463;-58
2021/03/04 06:48:22;;;;;;;41.27;21.13;;;4.30;99.90;;;;;;4977574;28;20566;-57
2021/03/04 06:50:49;;;;;;;39.13;20.90;;;4.30;99.90;;;;;;4991553;28;21137;-60
2021/03/04 06:53:21;;;;;;;41.93;19.60;;;4.30;99.90;;;;;;4982384;28;20448;-59
2021/03/04 06:55:56;;;;;;;36.90;19.37;;;4.30;99.90;;;;;;4994149;28;20489;-59
2021/03/04 06:58:30;;;;;;;37.93;18.83;;;4.30;99.90;;;;;;4987985;28;20443;-59
2021/03/04 07:01:15;;;;;;;38.80;19.60;;;4.30;99.90;;;;;;4989520;28;20444;-59
2021/03/04 07:03:49;;;;;;;39.10;19.73;;;4.30;99.90;;;;;;4977776;28;21132;-58
2021/03/04 07:06:23;;;;;;;31.93;18.03;;;4.30;99.90;;;;;;4968978;28;20518;-60
2021/03/04 07:08:52;;;;;;;42.03;19.90;;;4.30;99.90;;;;;;4963358;28;20432;-61
2021/03/04 07:11:22;;;;;;;39.87;21.00;;;4.40;99.90;;;;;;4973488;28;20550;-62
2021/03/04 07:13:48;;;;;;;38.17;21.30;;;4.30;99.90;;;;;;4969320;28;20463;-58
2021/03/04 07:16:21;;;;;;;43.50;22.67;;;4.40;99.90;;;;;;4977149;28;20498;-60
2021/03/04 07:18:54;;;;;;;40.03;19.27;;;4.30;99.90;;;;;;4975294;28;20429;-59
2021/03/04 07:21:23;;;;;;;41.57;20.73;;;4.30;99.90;;;;;;4974684;28;21197;-59
2021/03/04 07:23:49;;;;;;;42.50;20.53;;;4.30;99.90;;;;;;4968180;28;21204;-60
2021/03/04 07:26:16;;;;;;;40.13;20.43;;;4.30;99.90;;;;;;4959499;28;20459;-59
2021/03/04 07:28:44;;;;;;;40.10;21.80;;;4.30;99.90;;;;;;4961781;28;20436;-60
2021/03/04 07:31:11;;;;;;;42.30;21.80;;;4.40;99.90;;;;;;4962632;28;20424;-59
2021/03/04 07:33:38;;;;;;;54.20;21.90;;;4.40;99.90;;;;;;4959523;28;20441;-60
2021/03/04 07:36:10;;;;;;;39.53;20.83;;;4.40;99.90;;;;;;4958236;28;20762;-59
2021/03/04 07:38:36;;;;;;;36.50;19.77;;;4.50;99.90;;;;;;4957611;28;20486;-61
2021/03/04 07:41:13;;;;;;;41.70;22.23;;;4.50;99.90;;;;;;4959328;28;20439;-59
2021/03/04 07:43:55;;;;;;;48.33;21.63;;;4.50;99.90;;;;;;4960241;28;20449;-59
2021/03/04 07:46:49;;;;;;;40.60;20.70;;;4.60;99.90;;;;;;4961838;28;20440;-60
2021/03/04 07:49:15;;;;;;;35.50;19.83;;;4.60;99.90;;;;;;4976513;28;20495;-60
2021/03/04 07:51:48;;;;;;;40.00;19.90;;;4.70;99.90;;;;;;4974910;28;20444;-61
2021/03/04 07:54:25;;;;;;;40.50;20.47;;;4.80;99.90;;;;;;4971317;28;20216;-59
2021/03/04 07:57:04;;;;;;;40.97;20.40;;;4.80;99.90;;;;;;4963119;28;20427;-60
2021/03/04 07:59:31;;;;;;;38.10;21.13;;;4.80;99.90;;;;;;4963654;28;20456;-61
2021/03/04 08:01:59;;;;;;;34.30;21.13;;;4.90;99.90;;;;;;4984706;28;20424;-62
2021/03/04 08:04:27;;;;;;;34.57;20.53;;;4.90;99.90;;;;;;4979690;28;20512;-61
2021/03/04 08:06:54;;;;;;;32.57;19.30;;;5.00;99.90;;;;;;4974371;28;20557;-59
2021/03/04 08:09:31;;;;;;;41.37;21.67;;;5.00;99.90;;;;;;4977908;28;20486;-61
2021/03/04 08:12:14;;;;;;;42.50;19.83;;;5.00;99.90;;;;;;4982171;28;20440;-62
2021/03/04 08:14:56;;;;;;;38.80;18.90;;;5.10;99.90;;;;;;4977885;28;20661;-60
2021/03/04 08:17:33;;;;;;;39.80;19.47;;;5.20;99.90;;;;;;4973136;28;20892;-62
2021/03/04 08:20:04;;;;;;;40.90;20.13;;;5.20;99.90;;;;;;4984251;28;20429;-62
2021/03/04 08:22:36;;;;;;;33.30;19.07;;;5.30;99.90;;;;;;4984004;28;20496;-61
2021/03/04 08:25:02;;;;;;;37.03;21.00;;;5.40;99.90;;;;;;4971932;28;20463;-60
2021/03/04 08:27:37;;;;;;;40.37;19.57;;;5.50;99.90;;;;;;4965785;28;20445;-61
2021/03/04 08:30:04;;;;;;;39.60;19.90;;;5.50;99.90;;;;;;4974200;28;21057;-62
2021/03/04 08:32:29;;;;;;;34.33;19.23;;;5.60;99.90;;;;;;4979408;28;20435;-62
2021/03/04 08:34:55;;;;;;;40.97;19.67;;;5.60;99.60;;;;;;4981361;28;20560;-61
2021/03/04 08:37:23;;;;;;;34.67;19.63;;;5.60;99.20;;;;;;4978573;28;20535;-62
2021/03/04 08:40:00;;;;;;;41.10;20.50;;;5.70;99.20;;;;;;4988595;28;20436;-63
2021/03/04 08:42:25;;;;;;;35.43;20.30;;;5.90;98.90;;;;;;4978972;28;20436;-61
2021/03/04 08:44:51;;;;;;;42.23;21.10;;;6.00;98.40;;;;;;4977443;28;21460;-62
2021/03/04 08:47:17;;;;;;;44.53;20.20;;;6.20;98.20;;;;;;4977375;28;20193;-60
2021/03/04 08:49:59;;;;;;;38.23;19.70;;;6.40;97.40;;;;;;4980159;28;20680;-61
2021/03/04 08:52:27;;;;;;;43.67;21.83;;;6.60;97.30;;;;;;4979280;28;20187;-61
2021/03/04 08:54:55;;;;;;;47.23;22.10;;;6.80;97.50;;;;;;4978984;28;20495;-61
2021/03/04 08:57:28;;;;;;;48.03;20.77;;;6.90;97.60;;;;;;4975386;28;20432;-60
2021/03/04 09:00:10;;;;;;;49.87;21.93;;;7.10;97.20;;;;;;4974032;28;20439;-61
2021/03/04 09:02:38;;;;;;;38.40;20.00;;;7.20;96.40;;;;;;4968195;28;21038;-58
2021/03/04 09:05:05;;;;;;;39.67;18.67;;;7.30;95.40;;;;;;4967664;28;20975;-61
2021/03/04 09:07:43;;;;;;;40.40;18.23;;;7.50;93.60;;;;;;4983500;28;20444;-63
2021/03/04 09:10:09;;;;;;;40.07;17.90;;;7.60;87.50;;;;;;4986870;28;20503;-61
2021/03/04 09:12:45;;;;;;;38.37;16.23;;;7.70;84.20;;;;;;4990075;28;20467;-61
2021/03/04 09:15:14;;;;;;;32.53;16.67;;;7.90;79.60;;;;;;4992623;28;20472;-61
2021/03/04 09:17:44;;;;;;;34.13;16.13;;;8.00;77.30;;;;;;4995418;28;20452;-60
2021/03/04 09:20:13;;;;;;;29.13;16.13;;;8.10;75.40;;;;;;5003715;28;20444;-60
2021/03/04 09:22:43;;;;;;;28.33;15.97;;;8.30;71.70;;;;;;4992927;28;20425;-62
2021/03/04 09:25:12;;;;;;;37.00;17.07;;;8.40;68.70;;;;;;4991612;28;20467;-62
2021/03/04 09:27:41;;;;;;;33.70;15.90;;;8.60;65.70;;;;;;4970752;28;20448;-60
2021/03/04 09:30:08;;;;;;;34.70;16.40;;;8.70;65.50;;;;;;4972925;28;20455;-59
2021/03/04 09:32:34;;;;;;;29.70;16.43;;;8.80;65.10;;;;;;4969769;28;20514;-62
2021/03/04 09:35:10;;;;;;;27.30;15.40;;;9.00;65.00;;;;;;4969981;28;22771;-61
2021/03/04 09:37:36;;;;;;;23.83;12.30;;;9.20;61.90;;;;;;4979569;28;20436;-62
2021/03/04 09:40:02;;;;;;;25.90;12.77;;;9.30;58.70;;;;;;4979547;28;20471;-62
2021/03/04 09:42:36;;;;;;;30.50;13.77;;;9.30;56.40;;;;;;4977264;28;20182;-63
2021/03/04 09:45:11;;;;;;;28.40;12.70;;;9.30;55.60;;;;;;4974652;28;20557;-63
2021/03/04 09:47:44;;;;;;;20.60;10.97;;;9.30;54.70;;;;;;4968381;28;20454;-65
2021/03/04 09:50:30;;;;;;;22.43;10.83;;;9.40;53.10;;;;;;4978276;28;20424;-61
2021/03/04 09:53:08;;;;;;;24.33;9.53;;;9.40;52.00;;;;;;4982548;28;21086;-60
2021/03/04 09:55:42;;;;;;;23.53;9.17;;;9.50;51.10;;;;;;4990732;28;20471;-61
2021/03/04 09:58:28;;;;;;;29.27;9.00;;;9.60;50.30;;;;;;4983622;28;20448;-59
2021/03/04 10:00:59;;;;;;;18.10;9.20;;;9.70;50.00;;;;;;4986802;28;20435;-70
2021/03/04 10:03:35;;;;;;;19.73;9.67;;;9.80;49.80;;;;;;4995758;28;20432;-64
2021/03/04 10:06:01;;;;;;;19.20;7.67;;;10.00;47.30;;;;;;4986028;28;20435;-63
2021/03/04 10:08:39;;;;;;;24.47;8.67;;;10.10;47.50;;;;;;4976261;28;20422;-68
2021/03/04 10:11:05;;;;;;;15.53;7.87;;;10.20;45.70;;;;;;4984484;28;20455;-63
2021/03/04 10:13:32;;;;;;;20.10;8.23;;;10.40;45.90;;;;;;4980533;28;20475;-62
2021/03/04 10:16:18;;;;;;;16.90;7.47;;;10.60;44.90;;;;;;4984338;28;21182;-64
2021/03/04 10:18:53;;;;;;;13.00;5.97;;;10.70;43.70;;;;;;4978954;28;20516;-63
2021/03/04 10:21:19;;;;;;;13.50;5.60;;;10.90;42.10;;;;;;4981634;28;20808;-64
2021/03/04 10:23:47;;;;;;;8.00;5.30;;;11.00;40.70;;;;;;4981802;28;20571;-63
2021/03/04 10:26:13;;;;;;;13.43;5.40;;;11.10;40.60;;;;;;4977574;28;20455;-64
2021/03/04 10:28:38;;;;;;;14.50;5.83;;;11.30;40.10;;;;;;4985861;28;20431;-65
2021/03/04 10:31:04;;;;;;;11.87;6.23;;;11.40;39.00;;;;;;5009716;28;20436;-62
2021/03/04 10:33:30;;;;;;;21.93;5.90;;;11.60;38.00;;;;;;4994554;28;20925;-63
2021/03/04 10:35:58;;;;;;;9.30;5.50;;;11.60;38.00;;;;;;4981497;28;20980;-62
2021/03/04 10:38:24;;;;;;;15.50;6.57;;;11.70;37.20;;;;;;4978479;28;20180;-61
2021/03/04 10:40:49;;;;;;;8.60;4.20;;;11.80;37.70;;;;;;4978079;28;20436;-61
2021/03/04 10:43:16;;;;;;;8.90;4.90;;;11.90;36.00;;;;;;4982348;28;20181;-61
2021/03/04 10:45:42;;;;;;;13.10;5.40;;;12.00;36.20;;;;;;4994078;28;20208;-60
2021/03/04 10:48:08;;;;;;;13.10;5.33;;;12.10;36.00;;;;;;4985593;28;20436;-60
2021/03/04 10:50:34;;;;;;;17.40;5.20;;;12.10;36.10;;;;;;5000252;28;20471;-60
2021/03/04 10:53:00;;;;;;;13.63;5.00;;;12.10;36.30;;;;;;4983356;28;20876;-60
2021/03/04 10:55:28;;;;;;;10.93;5.60;;;12.20;36.90;;;;;;4981437;28;20228;-60
2021/03/04 10:57:54;;;;;;;12.40;5.57;;;12.30;35.70;;;;;;4978933;28;20292;-60
2021/03/04 11:00:20;;;;;;;12.13;5.27;;;12.30;35.40;;;;;;4975875;28;20809;-60
2021/03/04 11:02:48;;;;;;;11.40;5.17;;;12.40;35.40;;;;;;4979468;28;20184;-60
2021/03/04 11:05:14;;;;;;;12.33;5.57;;;12.60;34.30;;;;;;4983384;28;21067;-60
2021/03/04 11:07:40;;;;;;;10.80;5.10;;;12.70;34.00;;;;;;4986351;28;20446;-58
2021/03/04 11:10:07;;;;;;;10.57;5.00;;;12.90;34.40;;;;;;4980073;28;20208;-61
2021/03/04 11:12:33;;;;;;;11.40;5.80;;;13.10;34.60;;;;;;4977489;28;20181;-61
2021/03/04 11:15:00;;;;;;;8.63;5.20;;;13.40;35.00;;;;;;4973980;28;21145;-62
2021/03/04 11:17:26;;;;;;;10.97;6.03;;;13.60;35.10;;;;;;4985420;28;21002;-61
2021/03/04 11:19:52;;;;;;;9.00;5.20;;;13.90;35.10;;;;;;4977682;28;20444;-62
2021/03/04 11:22:18;;;;;;;13.33;5.80;;;14.00;33.80;;;;;;4996438;28;20438;-62
2021/03/04 11:24:47;;;;;;;9.60;5.73;;;14.20;34.30;;;;;;4971379;28;20704;-61
2021/03/04 11:27:13;;;;;;;11.87;5.70;;;14.40;34.00;;;;;;4978819;28;20446;-62
2021/03/04 11:29:39;;;;;;;9.30;5.80;;;14.50;33.60;;;;;;4983286;28;20431;-62
2021/03/04 11:32:05;;;;;;;13.20;6.10;;;14.70;33.50;;;;;;4981700;28;20477;-61
2021/03/04 11:34:31;;;;;;;11.77;6.20;;;14.90;33.20;;;;;;4987808;28;20483;-60
2021/03/04 11:36:57;;;;;;;13.60;5.93;;;15.00;33.00;;;;;;4978218;28;20448;-61
2021/03/04 11:39:22;;;;;;;12.70;6.20;;;15.20;32.30;;;;;;4982701;28;20189;-63
2021/03/04 11:41:48;;;;;;;17.33;7.30;;;15.40;32.80;;;;;;4979149;28;20748;-62
2021/03/04 11:44:14;;;;;;;15.33;6.70;;;15.70;32.30;;;;;;4978225;28;20215;-62
2021/03/04 11:46:42;;;;;;;12.17;6.60;;;16.00;32.80;;;;;;4986886;28;20653;-61
2021/03/04 11:49:08;;;;;;;15.77;6.73;;;16.20;32.80;;;;;;4984760;28;20841;-62
2021/03/04 11:51:34;;;;;;;10.67;5.97;;;16.30;32.10;;;;;;4981521;28;20440;-63
2021/03/04 11:54:00;;;;;;;14.67;6.53;;;16.40;31.20;;;;;;4973114;28;20209;-62
2021/03/04 11:56:26;;;;;;;12.90;6.00;;;16.50;30.70;;;;;;4975593;28;21542;-62
2021/03/04 11:58:52;;;;;;;11.90;6.30;;;16.60;31.00;;;;;;4977147;28;20815;-63
2021/03/04 12:01:18;;;;;;;10.50;6.50;;;16.50;30.70;;;;;;4978788;28;20432;-62
2021/03/04 12:03:44;;;;;;;9.70;6.00;;;16.30;31.30;;;;;;4979461;28;20276;-61
2021/03/04 12:06:10;;;;;;;10.40;5.70;;;16.20;32.10;;;;;;4977618;28;20477;-62
2021/03/04 12:08:36;;;;;;;11.67;5.20;;;16.10;32.10;;;;;;4978566;28;20451;-60
2021/03/04 12:11:02;;;;;;;13.40;5.90;;;15.90;31.80;;;;;;4968407;28;20696;-61
2021/03/04 12:13:31;;;;;;;11.47;5.77;;;15.80;31.60;;;;;;4973662;28;20177;-66
2021/03/04 12:16:05;;;;;;;9.23;5.40;;;15.60;31.70;;;;;;4982182;28;20472;-62
2021/03/04 12:18:32;;;;;;;9.77;5.90;;;15.50;31.60;;;;;;4996218;28;20441;-61
2021/03/04 12:20:59;;;;;;;18.13;5.60;;;15.40;31.70;;;;;;4978714;28;20446;-61
2021/03/04 12:23:25;;;;;;;12.30;5.30;;;15.50;31.70;;;;;;4980912;28;20424;-61
2021/03/04 12:25:51;;;;;;;13.00;6.13;;;15.60;30.00;;;;;;4967690;28;21081;-61
2021/03/04 12:28:17;;;;;;;11.97;5.00;;;15.80;30.80;;;;;;4983740;28;20455;-62
2021/03/04 12:30:43;;;;;;;19.40;6.20;;;16.10;30.50;;;;;;4977613;28;20200;-62
2021/03/04 12:33:08;;;;;;;10.33;4.87;;;16.50;30.10;;;;;;4978715;28;20451;-62
2021/03/04 12:35:34;;;;;;;16.07;5.03;;;17.00;30.10;;;;;;4966926;28;20223;-61
2021/03/04 12:38:00;;;;;;;12.80;5.50;;;17.20;29.50;;;;;;4967775;28;20237;-61
2021/03/04 12:40:27;;;;;;;9.50;5.00;;;17.60;29.20;;;;;;4977297;28;20192;-63
2021/03/04 12:42:53;;;;;;;19.33;11.07;;;17.90;29.30;;;;;;4975118;28;21156;-61
2021/03/04 12:45:19;;;;;;;19.00;10.70;;;18.10;32.10;;;;;;4976365;28;20526;-60